Aviation Digital Data Service (ADDS)

Output produced by METARs form (1246 UTC 22 March 2019)
found at http://www.aviationweather.gov/metar/data/
 
Forecast for: AMD
Text: TAF AMD LPAR 220903Z 2209/2218 06008KT CAVOK
Forecast period: 0900 to 1800 UTC 22 March 2019
Forecast type: FROM: standard forecast or significant change
Winds: from the ENE (60 degrees) at 9 MPH (8 knots; 4.1 m/s)
Visibility: 6 or more miles 10+ km)
Ceiling: unknown
Clouds: missing
Weather: NSW  (no significant weather)